createdAt,value
2019-02-07T00:02:00.596Z,47.63
2019-02-07T00:05:05.253Z,52.83
2019-02-07T00:08:07.340Z,46.50
2019-02-07T00:11:10.019Z,48.17
2019-02-07T00:14:11.934Z,51.97
2019-02-07T00:17:13.923Z,55.87
2019-02-07T00:20:17.945Z,55.70
2019-02-07T00:23:19.900Z,55.33
2019-02-07T00:26:21.836Z,53.47
2019-02-07T00:29:23.731Z,52.23
2019-02-07T00:32:25.697Z,52.17
2019-02-07T00:35:27.561Z,57.30
2019-02-07T00:38:29.493Z,54.60
2019-02-07T00:41:31.394Z,56.83
2019-02-07T00:44:33.282Z,44.73
2019-02-07T00:47:35.237Z,55.90
2019-02-07T00:50:37.153Z,55.97
2019-02-07T00:53:39.492Z,54.13
2019-02-07T00:56:42.642Z,53.77
2019-02-07T00:59:44.573Z,55.40
2019-02-07T01:02:46.807Z,55.20
2019-02-07T01:05:48.700Z,54.83
2019-02-07T01:08:50.750Z,52.10
2019-02-07T01:11:53.700Z,51.37
2019-02-07T01:15:01.992Z,49.93
2019-02-07T01:17:59.738Z,55.70
2019-02-07T01:21:01.670Z,50.23
2019-02-07T01:24:03.610Z,50.13
2019-02-07T01:27:05.574Z,49.67
2019-02-07T01:30:11.001Z,52.70
2019-02-07T01:33:12.942Z,52.23
2019-02-07T01:36:14.933Z,67.17
2019-02-07T01:39:16.977Z,55.60
2019-02-07T01:42:18.938Z,56.90
2019-02-07T01:45:22.940Z,54.83
2019-02-07T01:48:24.822Z,54.63
2019-02-07T01:51:26.881Z,51.10
2019-02-07T01:54:29.506Z,53.03
2019-02-07T01:57:31.427Z,50.57
2019-02-07T02:00:33.281Z,51.33
2019-02-07T02:03:35.441Z,51.27
2019-02-07T02:06:37.390Z,46.63
2019-02-07T02:09:39.401Z,49.47
2019-02-07T02:12:41.301Z,50.40
2019-02-07T02:15:44.030Z,47.87
2019-02-07T02:18:46.060Z,45.90
2019-02-07T02:21:48.053Z,44.43
2019-02-07T02:24:50.054Z,46.70
2019-02-07T02:27:52.569Z,49.00
2019-02-07T02:30:55.654Z,47.07
2019-02-07T02:33:57.567Z,45.83
2019-02-07T02:36:59.517Z,41.70
2019-02-07T02:40:02.006Z,45.97
2019-02-07T02:43:04.980Z,42.20
2019-02-07T02:46:06.947Z,46.33
2019-02-07T02:49:08.926Z,49.37
2019-02-07T02:52:10.862Z,45.23
2019-02-07T02:55:17.713Z,46.23
2019-02-07T02:58:19.675Z,44.53
2019-02-07T03:01:26.483Z,44.67
2019-02-07T03:04:30.219Z,48.53
2019-02-07T03:07:36.892Z,49.07
2019-02-07T03:10:58.589Z,45.27
2019-02-07T03:14:08.151Z,41.73
2019-02-07T03:17:27.011Z,43.50
2019-02-07T03:20:40.050Z,46.57
2019-02-07T03:23:46.371Z,45.13
2019-02-07T03:27:02.203Z,47.73
2019-02-07T03:30:15.416Z,46.23
2019-02-07T03:33:31.698Z,47.40
2019-02-07T03:36:35.456Z,45.10
2019-02-07T03:39:44.938Z,48.60
2019-02-07T03:42:54.765Z,48.73
2019-02-07T03:46:02.798Z,51.63
2019-02-07T03:49:04.609Z,45.27
2019-02-07T03:52:25.230Z,47.33
2019-02-07T03:55:28.990Z,47.23
2019-02-07T03:58:32.899Z,41.70
2019-02-07T04:01:53.499Z,55.60
2019-02-07T04:04:57.194Z,51.57
2019-02-07T04:08:06.540Z,53.47
2019-02-07T04:11:25.633Z,50.97
2019-02-07T04:14:45.910Z,58.67
2019-02-07T04:17:49.653Z,53.67
2019-02-07T04:21:08.823Z,53.37
2019-02-07T04:24:21.663Z,55.57
2019-02-07T04:27:37.423Z,53.80
2019-02-07T04:30:41.911Z,57.40
2019-02-07T04:34:02.276Z,54.23
2019-02-07T04:37:06.015Z,47.63
2019-02-07T04:40:20.296Z,54.67
2019-02-07T04:43:40.687Z,54.67
2019-02-07T04:46:56.954Z,49.27
2019-02-07T04:50:09.544Z,50.27
2019-02-07T04:53:19.303Z,57.43
2019-02-07T04:56:39.977Z,49.70
2019-02-07T04:59:52.496Z,56.63
2019-02-07T05:02:56.339Z,47.17
2019-02-07T05:06:02.993Z,55.07
2019-02-07T05:09:17.019Z,50.17
2019-02-07T05:12:20.869Z,54.03
2019-02-07T05:15:43.294Z,51.20
2019-02-07T05:18:59.083Z,50.27
2019-02-07T05:22:12.027Z,50.50
2019-02-07T05:25:18.854Z,51.73
2019-02-07T05:28:39.514Z,48.97
2019-02-07T05:32:01.842Z,47.83
2019-02-07T05:35:25.734Z,54.37
2019-02-07T05:38:38.787Z,51.47
2019-02-07T05:41:45.492Z,44.90
2019-02-07T05:45:06.240Z,49.77
2019-02-07T05:48:25.430Z,46.53
2019-02-07T05:51:29.199Z,49.17
2019-02-07T05:54:49.754Z,53.03
2019-02-07T05:58:02.180Z,52.10
2019-02-07T06:01:22.508Z,49.83
2019-02-07T06:04:28.817Z,43.83
2019-02-07T06:07:35.669Z,33.00
2019-02-07T06:10:58.117Z,42.30
2019-02-07T06:17:23.125Z,49.73
2019-02-07T06:20:29.700Z,49.20
2019-02-07T06:23:42.746Z,46.77
2019-02-07T06:26:49.901Z,32.20
2019-02-07T06:29:56.871Z,42.30
2019-02-07T06:33:00.581Z,45.57
2019-02-07T06:36:07.309Z,42.20
2019-02-07T06:39:28.453Z,41.87
2019-02-07T06:42:37.659Z,47.63
2019-02-07T06:45:41.459Z,48.87
2019-02-07T06:49:01.722Z,44.10
2019-02-07T06:52:11.602Z,45.47
2019-02-07T06:55:24.158Z,47.63
2019-02-07T06:58:27.905Z,45.33
2019-02-07T07:01:31.592Z,42.10
2019-02-07T07:04:35.792Z,39.70
2019-02-07T07:07:54.564Z,37.90
2019-02-07T07:11:01.041Z,32.33
2019-02-07T07:14:14.245Z,33.00
2019-02-07T07:17:25.763Z,28.23
2019-02-07T07:20:29.866Z,35.30
2019-02-07T07:23:33.794Z,37.63
2019-02-07T07:26:43.840Z,36.10
2019-02-07T07:29:56.738Z,42.60
2019-02-07T07:33:06.299Z,42.13
2019-02-07T07:36:21.924Z,33.37
2019-02-07T07:39:31.322Z,39.90
2019-02-07T07:42:35.109Z,36.07
2019-02-07T07:45:38.773Z,36.80
2019-02-07T07:48:42.502Z,40.80
2019-02-07T07:51:46.276Z,38.17
2019-02-07T07:55:05.429Z,38.43
2019-02-07T07:58:09.117Z,33.10
2019-02-07T08:01:29.335Z,35.07
2019-02-07T08:04:39.079Z,36.33
2019-02-07T08:07:57.628Z,37.73
2019-02-07T08:11:13.618Z,36.97
2019-02-07T08:14:20.478Z,38.97
2019-02-07T08:17:47.503Z,35.50
2019-02-07T08:20:51.061Z,39.30
2019-02-07T08:24:04.224Z,43.53
2019-02-07T08:27:14.359Z,44.73
2019-02-07T08:30:24.044Z,45.10
2019-02-07T08:33:39.328Z,47.63
2019-02-07T08:37:00.151Z,48.57
2019-02-07T08:40:11.842Z,48.73
2019-02-07T08:43:30.643Z,49.53
2019-02-07T08:46:53.472Z,46.70
2019-02-07T08:49:57.382Z,43.60
2019-02-07T08:53:01.112Z,40.60
2019-02-07T08:56:10.342Z,40.77
2019-02-07T08:59:17.131Z,44.80
2019-02-07T09:02:35.737Z,42.60
2019-02-07T09:05:39.534Z,45.43
2019-02-07T09:08:49.615Z,47.00
2019-02-07T09:11:59.171Z,44.17
2019-02-07T09:15:20.939Z,48.27
2019-02-07T09:18:24.718Z,42.03
2019-02-07T09:21:45.154Z,41.57
2019-02-07T09:25:06.219Z,45.77
2019-02-07T09:28:12.695Z,42.17
2019-02-07T09:31:19.610Z,45.17
2019-02-07T09:34:23.260Z,43.73
2019-02-07T09:37:33.178Z,42.63
2019-02-07T09:40:36.900Z,40.77
2019-02-07T09:43:40.678Z,43.37
2019-02-07T09:46:47.365Z,46.67
2019-02-07T09:49:51.097Z,42.63
2019-02-07T09:52:57.356Z,36.87
2019-02-07T09:56:01.038Z,39.73
2019-02-07T09:59:05.400Z,39.90
2019-02-07T10:02:09.093Z,37.73
2019-02-07T10:05:28.907Z,45.50
2019-02-07T10:08:38.884Z,45.40
2019-02-07T10:11:57.912Z,43.57
2019-02-07T10:15:01.976Z,40.90
2019-02-07T10:18:13.254Z,37.83
2019-02-07T10:21:19.488Z,40.27
2019-02-07T10:24:26.196Z,35.40
2019-02-07T10:27:44.920Z,36.43
2019-02-07T10:31:03.642Z,35.77
2019-02-07T10:34:07.652Z,34.63
2019-02-07T10:37:23.738Z,36.33
2019-02-07T10:40:28.758Z,37.47
2019-02-07T10:43:35.432Z,37.73
2019-02-07T10:46:54.231Z,39.80
2019-02-07T10:50:00.942Z,38.17
2019-02-07T10:53:04.756Z,36.27
2019-02-07T10:56:11.216Z,39.90
2019-02-07T10:59:32.798Z,41.87
2019-02-07T11:02:36.580Z,34.90
2019-02-07T11:05:40.456Z,38.47
2019-02-07T11:08:44.172Z,31.27
2019-02-07T11:11:53.579Z,34.47
2019-02-07T11:15:03.378Z,36.43
2019-02-07T11:18:12.498Z,36.57
2019-02-07T11:21:20.297Z,36.93
2019-02-07T11:24:27.076Z,40.10
2019-02-07T11:27:30.955Z,39.27
2019-02-07T11:30:49.894Z,36.63
2019-02-07T11:33:53.637Z,36.43
2019-02-07T11:37:06.182Z,33.50
2019-02-07T11:40:12.702Z,37.53
2019-02-07T11:43:19.867Z,36.13
2019-02-07T11:46:37.171Z,36.97
2019-02-07T11:49:35.113Z,36.67
2019-02-07T11:52:40.217Z,35.93
2019-02-07T11:55:50.020Z,35.53
2019-02-07T11:59:10.556Z,31.73
2019-02-07T12:02:31.226Z,34.00
2019-02-07T12:05:34.975Z,34.97
2019-02-07T12:08:54.071Z,35.17
2019-02-07T12:12:03.947Z,36.30
2019-02-07T12:15:22.791Z,40.00
2019-02-07T12:18:29.315Z,42.30
2019-02-07T12:21:45.075Z,39.17
2019-02-07T12:24:48.889Z,38.53
2019-02-07T12:27:55.802Z,34.47
2019-02-07T12:31:08.900Z,31.97
2019-02-07T12:34:13.875Z,30.53
2019-02-07T12:37:18.970Z,26.83
2019-02-07T12:40:28.613Z,27.73
2019-02-07T12:43:44.675Z,30.17
2019-02-07T12:46:54.345Z,30.37
2019-02-07T12:50:04.633Z,33.70
2019-02-07T12:53:08.516Z,32.63
2019-02-07T12:56:28.757Z,34.13
2019-02-07T12:59:36.036Z,35.67
2019-02-07T13:02:42.523Z,34.47
2019-02-07T13:05:52.257Z,32.83
2019-02-07T13:09:01.597Z,32.23
2019-02-07T13:12:09.402Z,33.20
2019-02-07T13:15:16.243Z,35.57
2019-02-07T13:18:20.232Z,35.00
2019-02-07T13:21:23.938Z,28.33
2019-02-07T13:24:33.971Z,20.63
2019-02-07T13:27:44.996Z,22.33
2019-02-07T13:30:48.940Z,18.40
2019-02-07T13:34:09.554Z,19.47
2019-02-07T13:37:28.309Z,19.10
2019-02-07T13:40:47.014Z,15.93
2019-02-07T13:44:05.873Z,18.30
2019-02-07T13:47:13.025Z,21.33
2019-02-07T13:50:19.643Z,18.17
2019-02-07T13:53:23.404Z,18.17
2019-02-07T13:56:39.248Z,18.80
2019-02-07T13:59:55.594Z,19.53
2019-02-07T14:03:17.834Z,20.47
2019-02-07T14:06:21.564Z,19.63
2019-02-07T14:09:31.244Z,20.50
2019-02-07T14:12:40.742Z,20.77
2019-02-07T14:15:53.975Z,21.23
2019-02-07T14:18:57.679Z,23.77
2019-02-07T14:22:04.120Z,21.53
2019-02-07T14:25:12.995Z,23.20
2019-02-07T14:28:31.739Z,23.97
2019-02-07T14:31:35.500Z,23.30
2019-02-07T14:34:39.288Z,22.17
2019-02-07T14:37:59.555Z,21.63
2019-02-07T14:41:20.132Z,23.03
2019-02-07T14:44:29.757Z,25.00
2019-02-07T14:47:31.715Z,24.40
2019-02-07T14:50:33.640Z,25.40
2019-02-07T14:53:36.075Z,24.20
2019-02-07T14:56:38.243Z,23.33
2019-02-07T14:59:40.208Z,24.90
2019-02-07T15:02:42.068Z,26.13
2019-02-07T15:05:44.087Z,25.43
2019-02-07T15:08:46.197Z,25.17
2019-02-07T15:11:48.543Z,27.37
2019-02-07T15:14:50.456Z,24.00
2019-02-07T15:17:52.376Z,26.73
2019-02-07T15:20:54.348Z,24.90
2019-02-07T15:23:56.298Z,30.20
2019-02-07T15:26:58.701Z,27.40
2019-02-07T15:30:00.583Z,26.87
2019-02-07T15:33:02.828Z,28.53
2019-02-07T15:36:07.279Z,27.50
2019-02-07T15:39:11.281Z,28.60
2019-02-07T15:42:13.258Z,26.63
2019-02-07T15:45:15.262Z,27.73
2019-02-07T15:48:17.233Z,25.93
2019-02-07T15:51:20.128Z,26.50
2019-02-07T15:54:23.378Z,26.83
2019-02-07T15:57:25.612Z,26.00
2019-02-07T16:00:46.499Z,28.03
2019-02-07T16:03:53.639Z,27.53
2019-02-07T16:06:55.600Z,29.43
2019-02-07T16:09:57.600Z,29.60
2019-02-07T16:13:00.118Z,27.77
2019-02-07T16:16:02.044Z,28.33
2019-02-07T16:19:03.981Z,30.57
2019-02-07T16:22:06.255Z,29.33
2019-02-07T16:25:11.777Z,27.73
2019-02-07T16:28:13.677Z,28.90
2019-02-07T16:31:15.541Z,28.30
2019-02-07T16:34:18.864Z,29.53
2019-02-07T16:37:21.004Z,28.37
2019-02-07T16:40:23.452Z,28.73
2019-02-07T16:43:25.466Z,27.67
2019-02-07T16:46:27.427Z,28.17
2019-02-07T16:49:31.082Z,28.20
2019-02-07T16:52:32.978Z,25.20
2019-02-07T16:55:34.902Z,28.90
2019-02-07T16:58:37.067Z,27.30
2019-02-07T17:01:40.166Z,28.50
2019-02-07T17:04:42.300Z,26.10
2019-02-07T17:07:44.322Z,27.03
2019-02-07T17:10:50.142Z,28.30
2019-02-07T17:13:52.335Z,27.67
2019-02-07T17:16:57.280Z,31.47
2019-02-07T17:19:59.173Z,29.47
2019-02-07T17:23:01.675Z,31.27
2019-02-07T17:26:04.900Z,27.67
2019-02-07T17:29:06.811Z,28.17
2019-02-07T17:32:08.779Z,28.30
2019-02-07T17:35:13.844Z,25.40
2019-02-07T17:38:15.784Z,29.83
2019-02-07T17:41:18.140Z,28.17
2019-02-07T17:44:21.194Z,27.70
2019-02-07T17:47:23.185Z,28.57
2019-02-07T17:50:33.862Z,26.30
2019-02-07T17:53:35.833Z,28.70
2019-02-07T17:56:41.510Z,29.67
2019-02-07T17:59:43.664Z,29.00
2019-02-07T18:02:47.401Z,29.30
2019-02-07T18:05:49.347Z,32.30
2019-02-07T18:08:55.792Z,29.63
2019-02-07T18:11:58.200Z,29.87
2019-02-07T18:15:00.342Z,30.57
2019-02-07T18:18:02.746Z,27.93
2019-02-07T18:21:04.789Z,26.03
2019-02-07T18:24:07.882Z,28.77
2019-02-07T18:27:14.447Z,27.43
2019-02-07T18:30:18.774Z,30.80
2019-02-07T18:33:22.898Z,28.00
2019-02-07T18:36:26.235Z,28.23
2019-02-07T18:39:30.769Z,28.87
2019-02-07T18:42:31.975Z,30.13
2019-02-07T18:45:33.957Z,28.47
2019-02-07T18:48:39.226Z,28.67
2019-02-07T18:51:45.875Z,30.00
2019-02-07T18:54:48.930Z,26.70
2019-02-07T18:57:55.301Z,28.33
2019-02-07T19:00:58.807Z,27.57
2019-02-07T19:04:04.501Z,25.57
2019-02-07T19:07:06.423Z,28.00
2019-02-07T19:10:11.836Z,27.10
2019-02-07T19:13:15.315Z,28.00
2019-02-07T19:16:21.031Z,27.47
2019-02-07T19:19:22.956Z,28.63
2019-02-07T19:22:26.423Z,28.67
2019-02-07T19:25:28.663Z,27.67
2019-02-07T19:28:31.291Z,29.50
2019-02-07T19:31:35.500Z,28.03
2019-02-07T19:34:37.412Z,27.50
2019-02-07T19:37:42.194Z,28.87
2019-02-07T19:40:44.445Z,26.93
2019-02-07T19:43:49.522Z,30.00
2019-02-07T19:46:51.436Z,30.40
2019-02-07T19:49:53.367Z,31.77
2019-02-07T19:52:56.131Z,28.73
2019-02-07T19:56:02.090Z,30.03
2019-02-07T19:59:05.439Z,32.60
2019-02-07T20:02:08.337Z,31.63
2019-02-07T20:05:11.107Z,29.90
2019-02-07T20:08:14.154Z,30.23
2019-02-07T20:11:16.066Z,29.00
2019-02-07T20:14:19.439Z,31.57
2019-02-07T20:17:24.299Z,30.33
2019-02-07T20:20:26.654Z,26.20
2019-02-07T20:23:29.762Z,29.10
2019-02-07T20:26:31.703Z,28.17
2019-02-07T20:29:36.221Z,29.87
2019-02-07T20:32:38.262Z,28.63
2019-02-07T20:35:42.502Z,31.00
2019-02-07T20:38:46.024Z,29.30
2019-02-07T20:41:49.568Z,27.97
2019-02-07T20:44:51.582Z,29.23
2019-02-07T20:47:53.879Z,27.20
2019-02-07T20:50:57.685Z,26.83
2019-02-07T20:54:02.240Z,28.87
2019-02-07T20:57:07.431Z,27.80
2019-02-07T21:00:25.455Z,26.30
2019-02-07T21:03:28.983Z,27.00
2019-02-07T21:06:31.009Z,28.90
2019-02-07T21:09:34.366Z,28.13
2019-02-07T21:12:36.595Z,27.07
2019-02-07T21:15:38.494Z,28.67
2019-02-07T21:18:41.113Z,27.13
2019-02-07T21:21:43.141Z,29.73
2019-02-07T21:24:45.124Z,28.63
2019-02-07T21:27:47.071Z,30.13
2019-02-07T21:30:49.138Z,28.17
2019-02-07T21:33:52.121Z,28.67
2019-02-07T21:36:55.543Z,24.40
2019-02-07T21:39:57.709Z,25.57
2019-02-07T21:43:01.406Z,24.07
2019-02-07T21:46:05.655Z,26.83
2019-02-07T21:49:07.643Z,29.70
2019-02-07T21:52:09.550Z,28.50
2019-02-07T21:55:17.221Z,28.17
2019-02-07T21:58:19.194Z,27.60
2019-02-07T22:01:21.225Z,26.60
2019-02-07T22:04:23.085Z,27.37
2019-02-07T22:07:25.062Z,28.20
2019-02-07T22:10:26.977Z,27.60
2019-02-07T22:13:28.926Z,28.87
2019-02-07T22:16:30.773Z,26.23
2019-02-07T22:19:32.931Z,26.40
2019-02-07T22:22:34.791Z,29.30
2019-02-07T22:25:36.691Z,27.63
2019-02-07T22:28:38.587Z,28.30
2019-02-07T22:31:40.557Z,28.57
2019-02-07T22:34:42.414Z,29.53
2019-02-07T22:37:44.325Z,27.77
2019-02-07T22:40:46.269Z,28.13
2019-02-07T22:43:48.185Z,26.90
2019-02-07T22:46:50.065Z,26.60
2019-02-07T22:49:52.078Z,29.33
2019-02-07T22:52:57.138Z,30.50
2019-02-07T22:55:58.367Z,28.73
2019-02-07T22:59:00.221Z,29.80
2019-02-07T23:02:05.094Z,30.33
2019-02-07T23:05:07.014Z,29.73
2019-02-07T23:08:09.761Z,27.07
2019-02-07T23:11:11.640Z,28.53
2019-02-07T23:14:13.674Z,30.83
2019-02-07T23:17:15.590Z,31.00
2019-02-07T23:20:17.623Z,28.50
2019-02-07T23:23:19.568Z,29.40
2019-02-07T23:26:21.474Z,29.83
2019-02-07T23:29:23.356Z,30.60
2019-02-07T23:32:25.296Z,32.37
2019-02-07T23:35:27.536Z,34.53
2019-02-07T23:38:29.451Z,32.50
2019-02-07T23:41:31.508Z,31.60
2019-02-07T23:44:33.744Z,33.27
2019-02-07T23:47:35.705Z,31.20
2019-02-07T23:50:37.578Z,29.53
2019-02-07T23:53:39.669Z,33.23
2019-02-07T23:56:41.573Z,29.40
2019-02-07T23:59:43.668Z,31.97
